Terminal Aerodrome Forecast
Issued by NWS Sioux Falls, SD

Home | Current Version | Previous Version | Text Only | Print | Product List | Glossary On
Versions: 1 2 3 4 5 6 7 8 9 10 11 12 13 14 15 16
000
FTUS43 KFSD 181133
TAFFSD
TAF
KFSD 181133Z 1812/1912 09008KT P6SM SCT070 OVC100
     FM181800 12009KT P6SM -SHRA OVC060
     FM182000 15008KT 6SM SHRA OVC030
      TEMPO 1821/1823 4SM -TSRA BKN015 OVC030CB
     FM190000 15004KT 6SM BR OVC010
     FM190700 22009KT 6SM BR OVC007=

USA.gov is the U.S. government's official web portal to all federal, state and local government web resources and services.